Time;durP1;ratioP1;P1;durP2;ratioP2;P2;SDS_P1;SDS_P2;PMS_P1;PMS_P2;Temp;Humidity;BMP_temperature;BMP_pressure;BME280_temperature;BME280_humidity;BME280_pressure;Samples;Min_cycle;Max_cycle;Signal;HPM_P1;HPM_P2
2022/09/12 00:01:12;;;;;;;;;;;;;;;-142.75;100.00;76843.91;5052301;28;20448;-70
2022/09/12 00:03:38;;;;;;;;;;;;;;;-142.75;100.00;76838.00;5050944;28;19913;-69
2022/09/12 00:06:07;;;;;;;;;;;;;;;-142.75;100.00;76822.25;5052191;28;20396;-69
2022/09/12 00:08:33;;;;;;;;;;;;;;;-142.75;100.00;76826.19;5051944;28;19939;-69
2022/09/12 00:11:02;;;;;;;;;;;;;;;-142.75;100.00;76855.72;5050900;28;19913;-69
2022/09/12 00:13:28;;;;;;;;;;;;;;;-142.75;100.00;76863.59;5050853;28;19920;-69
2022/09/12 00:15:53;;;;;;;;;;;;;;;-142.75;100.00;76865.56;5050806;28;19925;-69
2022/09/12 00:18:18;;;;;;;;;;;;;;;-142.75;100.00;76879.34;5051803;28;19916;-69
2022/09/12 00:20:45;;;;;;;;;;;;;;;-142.75;100.00;76891.16;5051979;28;19924;-69
2022/09/12 00:23:10;;;;;;;;;;;;;;;-142.75;100.00;76901.00;5052091;28;19916;-68
2022/09/12 00:25:42;;;;;;;;;;;;;;;-142.75;100.00;76920.69;5050809;28;19913;-69
2022/09/12 00:28:08;;;;;;;;;;;;;;;-142.75;100.00;76924.63;5050436;28;19991;-69
2022/09/12 00:30:33;;;;;;;;;;;;;;;-142.75;100.00;76928.56;5050745;28;19982;-70
2022/09/12 00:32:58;;;;;;;;;;;;;;;-142.75;100.00;76926.59;5051963;28;19912;-69
2022/09/12 00:35:23;;;;;;;;;;;;;;;-142.75;100.00;76930.53;5050532;28;19921;-69
2022/09/12 00:37:49;;;;;;;;;;;;;;;-142.75;100.00;76940.38;5054092;28;20401;-69
2022/09/12 00:40:14;;;;;;;;;;;;;;;-142.75;100.00;76944.31;5054651;28;19913;-69
2022/09/12 00:42:39;;;;;;;;;;;;;;;-142.75;100.00;76946.28;5056167;28;19913;-68
2022/09/12 00:45:04;;;;;;;;;;;;;;;-142.75;100.00;76956.13;5055932;28;20294;-69
2022/09/12 00:47:30;;;;;;;;;;;;;;;-142.75;100.00;76948.25;5054286;28;19920;-69
2022/09/12 00:49:59;;;;;;;;;;;;;;;-142.75;100.00;76948.25;5055722;28;19917;-69
2022/09/12 00:52:33;;;;;;;;;;;;;;;-142.75;100.00;76952.19;5055459;28;19921;-69
2022/09/12 00:55:05;;;;;;;;;;;;;;;-142.75;100.00;76952.19;5054283;28;19917;-69
2022/09/12 00:57:33;;;;;;;;;;;;;;;-142.75;100.00;76940.38;5054100;28;19913;-69
2022/09/12 01:00:03;;;;;;;;;;;;;;;-142.75;100.00;76946.28;5054496;28;19912;-69
2022/09/12 01:02:28;;;;;;;;;;;;;;;-142.75;100.00;76942.34;5054251;28;19967;-69
2022/09/12 01:04:54;;;;;;;;;;;;;;;-142.75;100.00;76928.56;5054295;28;19917;-70
2022/09/12 01:07:20;;;;;;;;;;;;;;;-142.75;100.00;76920.69;5054019;28;19931;-69
2022/09/12 01:09:45;;;;;;;;;;;;;;;-142.75;100.00;76920.69;5054115;28;20278;-69
2022/09/12 01:12:12;;;;;;;;;;;;;;;-142.75;100.00;76918.72;5054057;28;19948;-69
2022/09/12 01:14:38;;;;;;;;;;;;;;;-142.75;100.00;76932.50;5054348;28;20396;-68
2022/09/12 01:17:03;;;;;;;;;;;;;;;-142.75;100.00;76924.63;5054950;28;19913;-70
2022/09/12 01:19:31;;;;;;;;;;;;;;;-142.75;100.00;76928.56;5054062;28;19917;-69
2022/09/12 01:22:15;;;;;;;;;;;;;;;-142.75;100.00;76926.59;5055244;28;19943;-69
2022/09/12 01:25:07;;;;;;;;;;;;;;;-142.75;100.00;76928.56;5053903;28;20016;-69
2022/09/12 01:27:41;;;;;;;;;;;;;;;-142.75;100.00;76926.59;5054799;28;19948;-70
2022/09/12 01:30:39;;;;;;;;;;;;;;;-142.75;100.00;76920.69;5053786;28;19913;-69
2022/09/12 01:33:10;;;;;;;;;;;;;;;-142.75;100.00;76920.69;5021145;28;19918;-70
2022/09/12 01:35:44;;;;;;;;;;;;;;;-142.75;100.00;76920.69;5054876;28;19922;-69
2022/09/12 01:38:10;;;;;;;;;;;;;;;-142.75;100.00;76912.81;5053376;28;19913;-70
2022/09/12 01:40:43;;;;;;;;;;;;;;;-142.75;100.00;76904.94;5053571;28;19913;-69
2022/09/12 01:43:17;;;;;;;;;;;;;;;-142.75;100.00;76895.09;5054789;28;19913;-69
2022/09/12 01:45:45;;;;;;;;;;;;;;;-142.75;100.00;76904.94;5053567;28;19912;-69
2022/09/12 01:48:19;;;;;;;;;;;;;;;-142.75;100.00;76891.16;5053897;28;19920;-70
2022/09/12 01:50:53;;;;;;;;;;;;;;;-142.75;100.00;76899.03;5053360;28;19940;-70
2022/09/12 01:53:21;;;;;;;;;;;;;;;-142.75;100.00;76885.25;5053126;28;19917;-69
2022/09/12 01:55:50;;;;;;;;;;;;;;;-142.75;100.00;76881.31;5053020;28;19948;-70
2022/09/12 01:58:28;;;;;;;;;;;;;;;-142.75;100.00;76885.25;5053013;28;19958;-69
2022/09/12 02:00:53;;;;;;;;;;;;;;;-142.75;100.00;76875.41;5054436;28;19966;-69
2022/09/12 02:03:22;;;;;;;;;;;;;;;-142.75;100.00;76885.25;5053109;28;19913;-70
2022/09/12 02:05:51;;;;;;;;;;;;;;;-142.75;100.00;76885.25;5053202;28;19913;-69
2022/09/12 02:08:25;;;;;;;;;;;;;;;-142.75;100.00;76879.34;5052713;28;19936;-69
2022/09/12 02:10:54;;;;;;;;;;;;;;;-142.75;100.00;76881.31;5054467;28;19912;-70
2022/09/12 02:13:33;;;;;;;;;;;;;;;-142.75;100.00;76883.28;5052824;28;19913;-70
2022/09/12 02:16:03;;;;;;;;;;;;;;;-142.75;100.00;76885.25;5054130;28;19917;-70
2022/09/12 02:18:30;;;;;;;;;;;;;;;-142.75;100.00;76885.25;5052711;28;20007;-69
2022/09/12 02:20:56;;;;;;;;;;;;;;;-142.75;100.00;76895.09;5052902;28;19940;-69
2022/09/12 02:23:25;;;;;;;;;;;;;;;-142.75;100.00;76885.25;5053972;28;20398;-69
2022/09/12 02:25:53;;;;;;;;;;;;;;;-142.75;100.00;76881.31;5053990;28;20050;-69
2022/09/12 02:28:30;;;;;;;;;;;;;;;-142.75;100.00;76871.47;5052369;28;19913;-70
2022/09/12 02:31:01;;;;;;;;;;;;;;;-142.75;100.00;76867.53;5052673;28;19987;-69
2022/09/12 02:33:43;;;;;;;;;;;;;;;-142.75;100.00;76867.53;5052508;28;19966;-70
2022/09/12 02:36:16;;;;;;;;;;;;;;;-142.75;100.00;76865.56;5053656;28;19923;-70
2022/09/12 02:38:44;;;;;;;;;;;;;;;-142.75;100.00;76859.66;5053520;28;20409;-69
2022/09/12 02:41:09;;;;;;;;;;;;;;;-142.75;100.00;76861.63;5052473;28;19920;-69
2022/09/12 02:43:36;;;;;;;;;;;;;;;-142.75;100.00;76853.75;5052342;28;19913;-69
2022/09/12 02:46:02;;;;;;;;;;;;;;;-142.75;100.00;76853.75;5052448;28;19912;-69
2022/09/12 02:48:30;;;;;;;;;;;;;;;-142.75;100.00;76861.63;5051948;28;19920;-70
2022/09/12 02:50:56;;;;;;;;;;;;;;;-142.75;100.00;76865.56;5053697;28;20007;-69
2022/09/12 02:53:21;;;;;;;;;;;;;;;-142.75;100.00;76859.66;5051975;28;20454;-69
2022/09/12 02:55:47;;;;;;;;;;;;;;;-142.75;100.00;76853.75;5052279;28;19916;-69
2022/09/12 02:58:17;;;;;;;;;;;;;;;-142.75;100.00;76851.78;5051496;28;19913;-69
2022/09/12 03:01:01;;;;;;;;;;;;;;;-142.75;100.00;76855.72;5053077;28;20378;-69
2022/09/12 03:03:26;;;;;;;;;;;;;;;-142.75;100.00;76851.78;5051855;28;20265;-70
2022/09/12 03:05:57;;;;;;;;;;;;;;;-142.75;100.00;76847.84;5052003;28;19913;-69
2022/09/12 03:08:34;;;;;;;;;;;;;;;-142.75;100.00;76849.81;5051730;28;19953;-69
2022/09/12 03:11:02;;;;;;;;;;;;;;;-142.75;100.00;76855.72;5053194;28;19913;-69
2022/09/12 03:13:30;;;;;;;;;;;;;;;-142.75;100.00;76851.78;5053000;28;19913;-69
2022/09/12 03:16:04;;;;;;;;;;;;;;;-142.75;100.00;76838.00;5053013;28;19917;-69
2022/09/12 03:18:42;;;;;;;;;;;;;;;-142.75;100.00;76838.00;5051407;28;19934;-69
2022/09/12 03:21:24;;;;;;;;;;;;;;;-142.75;100.00;76838.00;5051682;28;19913;-70
2022/09/12 03:23:56;;;;;;;;;;;;;;;-142.75;100.00;76838.00;5051749;28;20007;-70
2022/09/12 03:26:27;;;;;;;;;;;;;;;-142.75;100.00;76843.91;5051533;28;19919;-69
2022/09/12 03:28:53;;;;;;;;;;;;;;;-142.75;100.00;76843.91;5051364;28;19917;-69
2022/09/12 03:31:19;;;;;;;;;;;;;;;-142.75;100.00;76838.00;5052972;28;19912;-69
2022/09/12 03:33:44;;;;;;;;;;;;;;;-142.75;100.00;76845.88;5052843;28;19916;-69
2022/09/12 03:36:14;;;;;;;;;;;;;;;-142.75;100.00;76836.03;5051404;28;19916;-69
2022/09/12 03:38:39;;;;;;;;;;;;;;;-142.75;100.00;76849.81;5051632;28;20024;-70
2022/09/12 03:41:05;;;;;;;;;;;;;;;-142.75;100.00;76857.69;5051469;28;20414;-70
2022/09/12 03:43:30;;;;;;;;;;;;;;;-142.75;100.00;76861.63;5051258;28;20390;-69
2022/09/12 03:45:55;;;;;;;;;;;;;;;-142.75;100.00;76857.69;5051292;28;19966;-69
2022/09/12 03:48:20;;;;;;;;;;;;;;;-142.75;100.00;76853.75;5052291;28;19973;-69
2022/09/12 03:50:45;;;;;;;;;;;;;;;-142.75;100.00;76853.75;5051187;28;20001;-70
2022/09/12 03:53:11;;;;;;;;;;;;;;;-142.75;100.00;76857.69;5050979;28;19916;-69
2022/09/12 03:55:37;;;;;;;;;;;;;;;-142.75;100.00;76865.56;5052368;28;19917;-69
2022/09/12 03:58:02;;;;;;;;;;;;;;;-142.75;100.00;76859.66;5052189;28;19920;-69
2022/09/12 04:00:27;;;;;;;;;;;;;;;-142.75;100.00;76859.66;5052346;28;19913;-69
2022/09/12 04:02:54;;;;;;;;;;;;;;;-142.75;100.00;76853.75;5050972;28;20337;-70
2022/09/12 04:05:20;;;;;;;;;;;;;;;-142.75;100.00;76853.75;5052271;28;19913;-69
2022/09/12 04:07:45;;;;;;;;;;;;;;;-142.75;100.00;76845.88;5052087;28;19920;-69
2022/09/12 04:10:10;;;;;;;;;;;;;;;-142.75;100.00;76849.81;5052079;28;19920;-69
2022/09/12 04:12:35;;;;;;;;;;;;;;;-142.75;100.00;76849.81;5052122;28;20290;-69
2022/09/12 04:15:00;;;;;;;;;;;;;;;-142.75;100.00;76865.56;5052150;28;20004;-68
2022/09/12 04:17:25;;;;;;;;;;;;;;;-142.75;100.00;76851.78;5051841;28;19913;-69
2022/09/12 04:19:51;;;;;;;;;;;;;;;-142.75;100.00;76849.81;5052105;28;19913;-69
2022/09/12 04:22:16;;;;;;;;;;;;;;;-142.75;100.00;76849.81;5051857;28;19959;-68
2022/09/12 04:24:41;;;;;;;;;;;;;;;-142.75;100.00;76845.88;5051726;28;20347;-69
2022/09/12 04:27:06;;;;;;;;;;;;;;;-142.75;100.00;76845.88;5050541;28;19920;-69
2022/09/12 04:29:31;;;;;;;;;;;;;;;-142.75;100.00;76845.88;5052068;28;19919;-69
2022/09/12 04:31:57;;;;;;;;;;;;;;;-142.75;100.00;76843.91;5051949;28;19913;-69
2022/09/12 04:34:22;;;;;;;;;;;;;;;-142.75;100.00;76836.03;5051999;28;19959;-69
2022/09/12 04:36:47;;;;;;;;;;;;;;;-142.75;100.00;76836.03;5051649;28;19958;-69
2022/09/12 04:39:13;;;;;;;;;;;;;;;-142.75;100.00;76849.81;5050583;28;20006;-69
2022/09/12 04:41:39;;;;;;;;;;;;;;;-142.75;100.00;76853.75;5051975;28;19913;-69
2022/09/12 04:44:06;;;;;;;;;;;;;;;-142.75;100.00;76853.75;5052074;28;20379;-69
2022/09/12 04:46:35;;;;;;;;;;;;;;;-142.75;100.00;76863.59;5051795;28;19912;-68
2022/09/12 04:49:00;;;;;;;;;;;;;;;-142.75;100.00;76869.50;5050617;28;19956;-69
2022/09/12 04:51:30;;;;;;;;;;;;;;;-142.75;100.00;76861.63;5050386;28;19963;-69
2022/09/12 04:53:57;;;;;;;;;;;;;;;-142.75;100.00;76885.25;5050616;28;20270;-69
2022/09/12 04:56:23;;;;;;;;;;;;;;;-142.75;100.00;76897.06;5051822;28;19963;-69
2022/09/12 04:58:48;;;;;;;;;;;;;;;-142.75;100.00;76885.25;5050305;28;20348;-69
2022/09/12 05:01:15;;;;;;;;;;;;;;;-142.75;100.00;76877.38;5051838;28;19916;-69
2022/09/12 05:03:43;;;;;;;;;;;;;;;-142.75;100.00;76891.16;5051679;28;20370;-69
2022/09/12 05:06:10;;;;;;;;;;;;;;;-142.75;100.00;76883.28;5051615;28;19913;-70
2022/09/12 05:08:36;;;;;;;;;;;;;;;-142.75;100.00;76887.22;5051442;28;19916;-69
2022/09/12 05:11:03;;;;;;;;;;;;;;;-142.75;100.00;76889.19;5051791;28;20007;-69
2022/09/12 05:13:29;;;;;;;;;;;;;;;-142.75;100.00;76889.19;5051671;28;19999;-69
2022/09/12 05:15:55;;;;;;;;;;;;;;;-142.75;100.00;76901.00;5051494;28;20024;-69
2022/09/12 05:18:20;;;;;;;;;;;;;;;-142.75;100.00;76906.91;5051327;28;19912;-69
2022/09/12 05:20:46;;;;;;;;;;;;;;;-142.75;100.00;76904.94;5051531;28;19913;-70
2022/09/12 05:23:11;;;;;;;;;;;;;;;-142.75;100.00;76908.88;5053885;28;20061;-69
2022/09/12 05:25:36;;;;;;;;;;;;;;;-142.75;100.00;76916.75;5055166;28;19920;-70
2022/09/12 05:28:01;;;;;;;;;;;;;;;-142.75;100.00;76924.63;5053581;28;20025;-69
2022/09/12 05:30:27;;;;;;;;;;;;;;;-142.75;100.00;76912.81;5051992;28;19917;-69
2022/09/12 05:32:52;;;;;;;;;;;;;;;-142.75;100.00;76918.72;5054939;28;19920;-69
2022/09/12 05:35:17;;;;;;;;;;;;;;;-142.75;100.00;76920.69;5054895;28;19921;-69
2022/09/12 05:37:42;;;;;;;;;;;;;;;-142.75;100.00;76920.69;5054628;28;20003;-69
2022/09/12 05:40:07;;;;;;;;;;;;;;;-142.75;100.00;76920.69;5054929;28;20375;-70
2022/09/12 05:42:33;;;;;;;;;;;;;;;-142.75;100.00;76914.78;5054780;28;19920;-69
2022/09/12 05:44:58;;;;;;;;;;;;;;;-142.75;100.00;76918.72;5054887;28;19920;-69
2022/09/12 05:47:23;;;;;;;;;;;;;;;-142.75;100.00;76920.69;5053209;28;20279;-69
2022/09/12 05:49:51;;;;;;;;;;;;;;;-142.75;100.00;76912.81;5054626;28;20008;-69
2022/09/12 05:52:16;;;;;;;;;;;;;;;-142.75;100.00;76912.81;5054646;28;19974;-70
2022/09/12 05:54:41;;;;;;;;;;;;;;;-142.75;100.00;76914.78;5054670;28;19917;-69
2022/09/12 05:57:06;;;;;;;;;;;;;;;-142.75;100.00;76924.63;5054283;28;19919;-69
2022/09/12 05:59:32;;;;;;;;;;;;;;;-142.75;100.00;76928.56;5054522;28;20307;-69
2022/09/12 06:01:57;;;;;;;;;;;;;;;-142.75;100.00;76930.53;5054376;28;19913;-69
2022/09/12 06:04:22;;;;;;;;;;;;;;;-142.75;100.00;76932.50;5053091;28;19913;-67
2022/09/12 06:06:48;;;;;;;;;;;;;;;-142.75;100.00;76928.56;5054036;28;19955;-69
2022/09/12 06:09:14;;;;;;;;;;;;;;;-142.75;100.00;76940.38;5053115;28;20382;-69
2022/09/12 06:11:40;;;;;;;;;;;;;;;-142.75;100.00;76928.56;5053904;28;19913;-69
2022/09/12 06:14:05;;;;;;;;;;;;;;;-142.75;100.00;76918.72;5053159;28;19923;-69
2022/09/12 06:16:31;;;;;;;;;;;;;;;-142.75;100.00;76906.91;5054025;28;19923;-67
2022/09/12 06:18:58;;;;;;;;;;;;;;;-142.75;100.00;76889.19;5054034;28;20321;-69
2022/09/12 06:21:25;;;;;;;;;;;;;;;-142.75;100.00;76871.47;5052848;28;19999;-69
2022/09/12 06:23:50;;;;;;;;;;;;;;;-142.75;100.00;76845.88;5054111;28;19959;-69
2022/09/12 06:26:16;;;;;;;;;;;;;;;-142.75;100.00;76822.25;5054079;28;19913;-69
2022/09/12 06:28:43;;;;;;;;;;;;;;;-142.75;100.00;76808.50;5053731;28;19913;-70
2022/09/12 06:31:17;;;;;;;;;;;;;;;-142.75;100.00;76794.69;5052629;28;19913;-70
2022/09/12 06:33:43;;;;;;;;;;;;;;;-142.75;100.00;76782.91;5053826;28;19920;-69
2022/09/12 06:36:13;;;;;;;;;;;;;;;-142.75;100.00;76749.44;5053213;28;19933;-67
2022/09/12 06:38:38;;;;;;;;;;;;;;;-142.75;100.00;76727.78;5053542;28;19920;-69
2022/09/12 06:41:05;;;;;;;;;;;;;;;-142.75;100.00;76731.72;5053901;28;19917;-69
2022/09/12 06:43:30;;;;;;;;;;;;;;;-142.75;100.00;76719.91;5052177;28;19917;-69
2022/09/12 06:45:56;;;;;;;;;;;;;;;-142.75;100.00;76704.16;5053691;28;19966;-69
2022/09/12 06:48:21;;;;;;;;;;;;;;;-142.75;100.00;76688.41;5053260;28;19920;-69
2022/09/12 06:50:57;;;;;;;;;;;;;;;-142.75;100.00;76662.81;5052330;28;20266;-69
2022/09/12 06:53:22;;;;;;;;;;;;;;;-142.75;100.00;76637.22;5054103;28;19917;-71
2022/09/12 06:55:53;;;;;;;;;;;;;;;-142.75;100.00;76613.59;5043674;28;19937;-69
2022/09/12 06:58:19;;;;;;;;;;;;;;;-142.75;100.00;76595.88;5033236;28;20051;-69
2022/09/12 07:00:44;;;;;;;;;;;;;;;-142.75;100.00;76576.19;5033551;28;20359;-69
2022/09/12 07:03:09;;;;;;;;;;;;;;;-142.75;100.00;76546.66;5042001;28;19913;-69
2022/09/12 07:05:36;;;;;;;;;;;;;;;-142.75;100.00;76525.03;5040188;28;19914;-70
2022/09/12 07:08:01;;;;;;;;;;;;;;;-142.75;100.00;76517.16;5035349;28;19967;-70
2022/09/12 07:10:26;;;;;;;;;;;;;;;-142.75;100.00;76479.75;5049749;28;19917;-70
2022/09/12 07:12:51;;;;;;;;;;;;;;;-142.75;100.00;76436.44;5049081;28;19971;-69
2022/09/12 07:15:17;;;;;;;;;;;;;;;-142.75;100.00;76414.78;5036918;28;19975;-69
2022/09/12 07:17:42;;;;;;;;;;;;;;;-142.75;100.00;76424.63;5045481;28;20286;-70
2022/09/12 07:20:07;;;;;;;;;;;;;;;-142.75;100.00;76408.88;5045176;28;19963;-69
2022/09/12 07:22:32;;;;;;;;;;;;;;;-142.75;100.00;76420.69;5039215;28;20393;-70
2022/09/12 07:24:58;;;;;;;;;;;;;;;-142.75;100.00;76424.63;5049798;28;20363;-70
2022/09/12 07:27:23;;;;;;;;;;;;;;;-142.75;100.00;76412.81;5044554;28;20283;-69
2022/09/12 07:29:48;;;;;;;;;;;;;;;-142.75;100.00;76402.97;5050235;28;19967;-70
2022/09/12 07:32:13;;;;;;;;;;;;;;;-142.75;100.00;76361.63;5042468;28;20374;-69
2022/09/12 07:34:38;;;;;;;;;;;;;;;-142.75;100.00;76322.28;5049183;28;19928;-70
2022/09/12 07:37:04;;;;;;;;;;;;;;;-142.75;100.00;76302.59;5045498;28;20347;-70
2022/09/12 07:39:29;;;;;;;;;;;;;;;-142.75;100.00;76280.94;5047707;28;20007;-70
2022/09/12 07:41:56;;;;;;;;;;;;;;;-142.75;100.00;76271.09;5040455;28;19921;-69
2022/09/12 07:44:21;;;;;;;;;;;;;;;-142.75;100.00;76273.06;5049825;28;20387;-69
2022/09/12 07:46:46;;;;;;;;;;;;;;;-142.75;100.00;76247.47;5038613;28;20034;-66
2022/09/12 07:49:12;;;;;;;;;;;;;;;-142.75;100.00;76239.59;5058976;28;19916;-70
2022/09/12 07:51:37;;;;;;;;;;;;;;;-142.75;100.00;76223.84;5043655;28;20666;-69
2022/09/12 07:54:06;;;;;;;;;;;;;;;-142.75;100.00;76239.59;5046260;28;20375;-70
2022/09/12 07:56:31;;;;;;;;;;;;;;;-142.75;100.00;76202.19;5038910;28;19927;-67
2022/09/12 07:58:57;;;;;;;;;;;;;;;-142.75;100.00;76190.41;5037095;28;19995;-70
2022/09/12 08:01:23;;;;;;;;;;;;;;;-142.75;100.00;76180.56;5040515;28;19963;-71
2022/09/12 08:03:51;;;;;;;;;;;;;;;-142.75;100.00;76160.88;5039140;28;19913;-70
2022/09/12 08:06:23;;;;;;;;;;;;;;;-142.75;100.00;76129.38;5039582;28;19920;-69
2022/09/12 08:08:48;;;;;;;;;;;;;;;-142.75;100.00;76160.88;5044807;28;19959;-70
2022/09/12 08:11:14;;;;;;;;;;;;;;;-142.75;100.00;76133.31;5048307;28;19920;-71
2022/09/12 08:13:41;;;;;;;;;;;;;;;-142.75;100.00;76135.28;5042270;28;19913;-70
2022/09/12 08:16:07;;;;;;;;;;;;;;;-142.75;100.00;76101.81;5049788;28;19917;-70
2022/09/12 08:18:33;;;;;;;;;;;;;;;-142.75;100.00;76050.66;5045531;28;19920;-71
2022/09/12 08:21:00;;;;;;;;;;;;;;;-142.75;100.00;76003.41;5044392;28;19920;-69
2022/09/12 08:23:26;;;;;;;;;;;;;;;-142.75;100.00;75948.31;5043434;28;20378;-70
2022/09/12 08:25:54;;;;;;;;;;;;;;;-142.75;100.00;75971.91;5045592;28;20375;-70
2022/09/12 08:28:19;;;;;;;;;;;;;;;-142.75;100.00;75964.03;5043340;28;19912;-68
2022/09/12 08:30:44;;;;;;;;;;;;;;;-142.75;100.00;75916.81;5043748;28;20278;-71
2022/09/12 08:33:10;;;;;;;;;;;;;;;-142.75;100.00;75887.28;5045510;28;19913;-71
2022/09/12 08:35:35;;;;;;;;;;;;;;;-142.75;100.00;75891.22;5050058;28;19921;-70
2022/09/12 08:38:01;;;;;;;;;;;;;;;-142.75;100.00;75887.28;5049723;28;19913;-70
2022/09/12 08:40:26;;;;;;;;;;;;;;;-142.75;100.00;75871.53;5051958;28;20397;-70
2022/09/12 08:42:56;;;;;;;;;;;;;;;-142.75;100.00;75830.22;5067209;28;19952;-70
2022/09/12 08:45:29;;;;;;;;;;;;;;;-142.75;100.00;75834.16;5043181;28;19956;-72
2022/09/12 08:47:55;;;;;;;;;;;;;;;-142.75;100.00;75845.97;5041216;28;20007;-71
2022/09/12 08:50:25;;;;;;;;;;;;;;;-142.75;100.00;75804.63;5040895;28;20005;-71
2022/09/12 08:53:02;;;;;;;;;;;;;;;-142.75;100.00;75828.25;5043526;28;19917;-71
2022/09/12 08:55:30;;;;;;;;;;;;;;;-142.75;100.00;75806.59;5050377;28;19955;-69
2022/09/12 08:57:56;;;;;;;;;;;;;;;-142.75;100.00;75782.97;5050900;28;19968;-69
2022/09/12 09:00:24;;;;;;;;;;;;;;;-142.75;100.00;75763.28;5044406;28;20507;-69
2022/09/12 09:02:50;;;;;;;;;;;;;;;-142.75;100.00;75718.03;5044657;28;20387;-70
2022/09/12 09:05:15;;;;;;;;;;;;;;;-142.75;100.00;75704.25;5044151;28;19945;-72
2022/09/12 09:07:59;;;;;;;;;;;;;;;-142.75;100.00;75690.47;5039907;28;19964;-69
2022/09/12 09:10:24;;;;;;;;;;;;;;;-142.75;100.00;75672.78;5046079;28;19940;-68
2022/09/12 09:12:55;;;;;;;;;;;;;;;-142.75;100.00;75672.78;5044028;28;20000;-67
2022/09/12 09:15:39;;;;;;;;;;;;;;;-142.75;100.00;75682.59;5044137;28;19943;-68
2022/09/12 09:18:17;;;;;;;;;;;;;;;-142.75;100.00;75645.22;5045554;28;20338;-70
2022/09/12 09:20:42;;;;;;;;;;;;;;;-142.75;100.00;75623.56;5045754;28;20306;-70
2022/09/12 09:23:29;;;;;;;;;;;;;;;-142.75;100.00;75619.63;5044732;28;19996;-68
2022/09/12 09:25:54;;;;;;;;;;;;;;;-142.75;100.00;75625.53;5044540;28;20383;-71
2022/09/12 09:28:22;;;;;;;;;;;;;;;-142.75;100.00;75607.81;5042642;28;19912;-70
2022/09/12 09:30:48;;;;;;;;;;;;;;;-142.75;100.00;75621.59;5044270;28;19913;-70
2022/09/12 09:33:23;;;;;;;;;;;;;;;-142.75;100.00;75641.28;5044131;28;19967;-72
2022/09/12 09:36:13;;;;;;;;;;;;;;;-142.75;100.00;75623.56;5043432;28;19917;-67
2022/09/12 09:38:58;;;;;;;;;;;;;;;-142.75;100.00;75627.50;5044523;28;19968;-69
2022/09/12 09:41:26;;;;;;;;;;;;;;;-142.75;100.00;75629.47;5044294;28;19995;-72
2022/09/12 09:43:52;;;;;;;;;;;;;;;-142.75;100.00;75590.13;5043922;28;19944;-70
2022/09/12 09:46:17;;;;;;;;;;;;;;;-142.75;100.00;75578.31;5044206;28;20413;-70
2022/09/12 09:48:44;;;;;;;;;;;;;;;-142.75;100.00;75546.81;5045008;28;20410;-70
2022/09/12 09:51:10;;;;;;;;;;;;;;;-142.75;100.00;75540.91;5043706;28;19921;-69
2022/09/12 09:53:35;;;;;;;;;;;;;;;-142.75;100.00;75485.81;5043190;28;19916;-69
2022/09/12 09:56:02;;;;;;;;;;;;;;;-142.75;100.00;75507.47;5042454;28;19917;-72
2022/09/12 09:58:31;;;;;;;;;;;;;;;-142.75;100.00;75501.56;5049439;28;20015;-71
2022/09/12 10:01:04;;;;;;;;;;;;;;;-142.75;100.00;75511.41;5035803;28;19970;-70
2022/09/12 10:03:31;;;;;;;;;;;;;;;-142.75;100.00;75511.41;5034496;28;19913;-70
2022/09/12 10:05:58;;;;;;;;;;;;;;;-142.75;100.00;75472.03;5034527;28;19917;-70
2022/09/12 10:08:25;;;;;;;;;;;;;;;-142.75;100.00;75448.41;5033799;28;19913;-71
2022/09/12 10:11:05;;;;;;;;;;;;;;;-142.75;99.87;75430.72;5034406;28;19913;-70
2022/09/12 10:13:53;;;;;;;;;;;;;;;-142.75;94.21;75430.72;5034330;28;19913;-70
2022/09/12 10:16:29;;;;;;;;;;;;;;;-142.75;97.18;75377.56;5031030;28;19960;-71
2022/09/12 10:18:58;;;;;;;;;;;;;;;-142.75;92.53;75389.38;5034023;28;19913;-70
2022/09/12 10:21:27;;;;;;;;;;;;;;;-142.75;91.24;75355.94;5032961;28;19971;-71
2022/09/12 10:23:59;;;;;;;;;;;;;;;-142.75;91.62;75361.84;5034195;28;20370;-70
2022/09/12 10:26:25;;;;;;;;;;;;;;;-142.75;90.30;75346.09;5034114;28;20428;-69
2022/09/12 10:28:52;;;;;;;;;;;;;;;-142.75;92.23;75432.69;5033920;28;19920;-70
2022/09/12 10:31:27;;;;;;;;;;;;;;;-142.75;90.15;75424.81;5034032;28;20398;-71
2022/09/12 10:33:54;;;;;;;;;;;;;;;-142.75;92.15;75401.19;5034053;28;20000;-71
2022/09/12 10:36:20;;;;;;;;;;;;;;;-142.75;92.39;75381.50;5033828;28;19917;-72
2022/09/12 10:38:54;;;;;;;;;;;;;;;-142.75;89.31;75369.69;5036128;28;19916;-70
2022/09/12 10:41:20;;;;;;;;;;;;;;;-142.75;90.96;75359.88;5033895;28;19913;-71
2022/09/12 10:43:45;;;;;;;;;;;;;;;-142.75;84.04;75401.19;5033667;28;19924;-69
2022/09/12 10:46:14;;;;;;;;;;;;;;;-142.75;85.56;75527.13;5033768;28;19913;-70
2022/09/12 10:48:40;;;;;;;;;;;;;;;-142.75;88.81;75529.09;5034696;28;19924;-70
2022/09/12 10:51:13;;;;;;;;;;;;;;;-142.75;91.47;75523.19;5044446;28;19913;-70
2022/09/12 10:53:44;;;;;;;;;;;;;;;-142.75;91.09;75468.09;5049111;28;20378;-72
2022/09/12 10:56:15;;;;;;;;;;;;;;;-142.75;87.82;75430.72;5044302;28;20307;-71
2022/09/12 10:58:59;;;;;;;;;;;;;;;-142.75;86.89;75428.75;5041758;28;19917;-70
2022/09/12 11:01:30;;;;;;;;;;;;;;;-142.75;84.54;75401.19;5044180;28;19916;-70
2022/09/12 11:04:01;;;;;;;;;;;;;;;-142.75;86.81;75336.25;5042236;28;19924;-70
2022/09/12 11:06:33;;;;;;;;;;;;;;;-142.75;84.88;75292.97;5041261;28;19920;-70
2022/09/12 11:09:05;;;;;;;;;;;;;;;-142.75;79.85;75263.44;5032025;28;19913;-70
2022/09/12 11:11:33;;;;;;;;;;;;;;;-142.75;78.44;75263.44;5033199;28;19913;-70
2022/09/12 11:14:07;;;;;;;;;;;;;;;-142.75;80.90;75228.00;5033228;28;19913;-71
2022/09/12 11:16:41;;;;;;;;;;;;;;;-142.75;76.83;75279.19;5032937;28;19917;-70
2022/09/12 11:19:16;;;;;;;;;;;;;;;-142.75;80.53;75204.41;5032848;28;20391;-67
2022/09/12 11:21:58;;;;;;;;;;;;;;;-142.75;82.78;75178.81;5032731;28;19913;-69
2022/09/12 11:24:33;;;;;;;;;;;;;;;-142.75;72.80;75200.47;5033145;28;20340;-70
2022/09/12 11:27:01;;;;;;;;;;;;;;;-142.75;73.18;75182.75;5042937;28;19917;-70
2022/09/12 11:29:42;;;;;;;;;;;;;;;-142.75;73.91;75212.28;5052767;28;20009;-70
2022/09/12 11:32:22;;;;;;;;;;;;;;;-142.75;76.18;75214.25;5052780;28;20007;-70
2022/09/12 11:34:48;;;;;;;;;;;;;;;-142.75;77.44;75206.38;5052768;28;19924;-69
2022/09/12 11:37:38;;;;;;;;;;;;;;;-142.75;82.54;75208.34;5049303;28;20019;-70
2022/09/12 11:40:26;;;;;;;;;;;;;;;-142.75;74.58;75165.03;5035384;28;19928;-68
2022/09/12 11:42:54;;;;;;;;;;;;;;;-142.75;79.93;75182.75;5052089;28;19916;-71
2022/09/12 11:45:27;;;;;;;;;;;;;;;-142.75;79.94;75200.47;5052734;28;19966;-69
2022/09/12 11:47:54;;;;;;;;;;;;;;;-142.75;76.86;75196.53;5052281;28;19920;-70
2022/09/12 11:50:29;;;;;;;;;;;;;;;-142.75;78.04;75135.53;5052238;28;20386;-70
2022/09/12 11:52:58;;;;;;;;;;;;;;;-142.75;72.70;75220.16;5050897;28;19927;-71
2022/09/12 11:55:27;;;;;;;;;;;;;;;-142.75;74.20;75261.47;5051091;28;19917;-70
2022/09/12 11:57:53;;;;;;;;;;;;;;;-142.75;79.70;75271.31;5052175;28;19920;-70
2022/09/12 12:00:19;;;;;;;;;;;;;;;-142.75;79.69;75212.28;5052357;28;19912;-70
2022/09/12 12:03:02;;;;;;;;;;;;;;;-142.75;78.28;75163.09;5050968;28;19963;-70
2022/09/12 12:05:32;;;;;;;;;;;;;;;-142.75;78.55;75167.00;5052300;28;20382;-71
2022/09/12 12:07:59;;;;;;;;;;;;;;;-142.75;72.61;75168.97;5052022;28;20305;-71
2022/09/12 12:10:37;;;;;;;;;;;;;;;-142.75;78.35;75202.44;5052193;28;19916;-70
2022/09/12 12:13:05;;;;;;;;;;;;;;;-142.75;82.73;75153.25;5052175;28;19966;-70
2022/09/12 12:15:33;;;;;;;;;;;;;;;-142.75;75.77;75180.78;5052099;28;20328;-70
2022/09/12 12:18:02;;;;;;;;;;;;;;;-142.75;78.06;75143.41;5052090;28;19913;-69
2022/09/12 12:20:28;;;;;;;;;;;;;;;-142.75;76.52;75131.59;5052172;28;20293;-70
2022/09/12 12:22:54;;;;;;;;;;;;;;;-142.75;78.79;75104.03;5052062;28;19913;-70
2022/09/12 12:25:19;;;;;;;;;;;;;;;-142.75;74.34;75107.97;5052118;28;19913;-70